Hauptseite
METAR-TAF:

METAR-TAF

Flughäfen :

Verkehrslandeplatz Hof-Plauen

Hof, Deutschland

Breite: 50-19N, Länge: 011-53E, Höhe: 567 m

Beobachtung

Neuester Wetterbericht von vor 27 Minuten, um 07:50 UTC
Wind 5 kt aus Ost/Südost, variierte zwischen Ost/Nordost und Süd/Südost
Temperatur 21°C
Luftfeuchtigkeit 46%
Luftdruck 1025 hPa
Sichtweite 10 km oder mehr
keine Wolken unter 1500 m und keine Kumulonimbus oder Gewitterwolken

METAR: EDQM 110750Z 11005KT 070V150 CAVOK 21/09 Q1025

Zeit: 10:17 (08:17 UTC)

Prognose

Neuester Wetterbericht von vor 3 Stunden und 17 Minuten, um 05:00 UTC
Gültige Prognose vom 11 um 06 UTC bis 11 um 15 UTC
Wind 3 kt aus unterschiedlichen Richtungen
Sichtweite 10 km oder mehr
keine Wolken unter 1500 m und keine Kumulonimbus oder Gewitterwolken
Übergehend zu
vom 11 um 06 UTC bis 11 um 08 UTC
Wind 6 kt aus Ost

TAF: EDQM 110500Z 1106/1115 VRB03KT CAVOK BECMG 1106/1108 08006KT

Wetterbeobachtungen und Prognosen von mehr als 4000 Flughäfen (METAR und TAF Bericht).

Die verfügbaren Stationen werden durch gelbe und rote Markierungen auf der Karte dargestellt.

Führen Sie die Maus auf sie, um den Namen der Station zu sehen.

Darauf klicken, um die Beobachtung von Wetterbeobachtungen und Prognosen zu sehen.

Um die Karte zu ändern : klicken Sie auf den grünen Tasten mit einem schwarzen Kreuz Zum Vergrößern, auf den grünen Button mit einem Gedankenstrich zu verkleinern, oder auf die grünen Pfeile für benachbarte Karten.


METAR-TAF: